Time;durP1;ratioP1;P1;durP2;ratioP2;P2;SDS_P1;SDS_P2;PMS_P1;PMS_P2;Temp;Humidity;BMP_temperature;BMP_pressure;BME280_temperature;BME280_humidity;BME280_pressure;Samples;Min_cycle;Max_cycle;Signal;HPM_P1;HPM_P2
2022/10/02 00:00:31;;;;;;;18.15;4.75;;;;;;;11.52;100.00;101166.78;1045192;28;20310;-81
2022/10/02 00:01:11;;;;;;;11.93;3.20;;;;;;;11.49;100.00;101173.31;1043953;28;20396;-81
2022/10/02 00:01:55;;;;;;;24.05;4.10;;;;;;;11.47;100.00;101170.06;1034586;28;20367;-81
2022/10/02 00:02:31;;;;;;;15.48;5.63;;;;;;;11.46;100.00;101169.22;1042626;28;20306;-81
2022/10/02 00:03:15;;;;;;;18.55;5.78;;;;;;;11.46;100.00;101174.56;1042914;28;20306;-81
2022/10/02 00:03:48;;;;;;;17.95;4.72;;;;;;;11.50;100.00;101168.81;1041202;28;20295;-81
2022/10/02 00:04:56;;;;;;;13.25;4.03;;;;;;;11.42;100.00;101181.38;1041405;28;20386;-81
2022/10/02 00:05:33;;;;;;;19.83;4.57;;;;;;;11.38;100.00;101180.16;1039510;28;20284;-81
2022/10/02 00:06:20;;;;;;;11.35;4.28;;;;;;;11.36;100.00;101179.56;1044044;28;20296;-81
2022/10/02 00:06:55;;;;;;;16.63;4.32;;;;;;;11.42;100.00;101177.88;1043467;28;20331;-81
2022/10/02 00:07:43;;;;;;;17.92;3.95;;;;;;;11.36;100.00;101184.06;1043479;28;20303;-81
2022/10/02 00:08:18;;;;;;;14.88;3.35;;;;;;;11.36;100.00;101184.91;1041521;28;20324;-81
2022/10/02 00:08:58;;;;;;;15.70;3.75;;;;;;;11.37;100.00;101186.53;1042359;28;20280;-82
2022/10/02 00:09:39;;;;;;;17.20;4.65;;;;;;;11.41;100.00;101177.06;1040080;28;20304;-81
2022/10/02 00:10:15;;;;;;;14.38;3.33;;;;;;;11.45;100.00;101178.28;1041521;28;20304;-81
2022/10/02 00:10:54;;;;;;;11.38;3.40;;;;;;;11.42;100.00;101189.38;1037510;28;20285;-80
2022/10/02 00:11:39;;;;;;;18.92;5.45;;;;;;;11.43;100.00;101183.00;1037495;28;20795;-81
2022/10/02 00:12:16;;;;;;;17.27;3.22;;;;;;;11.41;100.00;101179.72;1039417;28;20423;-81
2022/10/02 00:12:51;;;;;;;15.45;3.33;;;;;;;11.40;100.00;101186.09;1042849;28;20914;-81
2022/10/02 00:13:30;;;;;;;16.38;3.63;;;;;;;11.40;100.00;101187.94;1039165;28;20691;-80
2022/10/02 00:14:03;;;;;;;15.00;3.42;;;;;;;11.36;100.00;101184.91;1039012;28;20730;-81
2022/10/02 00:14:37;;;;;;;11.93;3.33;;;;;;;11.37;100.00;101180.38;1034630;28;20128;-81
2022/10/02 00:15:15;;;;;;;11.65;3.00;;;;;;;11.36;100.00;101184.91;1037188;28;20327;-81
2022/10/02 00:15:46;;;;;;;17.48;3.20;;;;;;;11.38;100.00;101188.16;1034597;28;20422;-81
2022/10/02 00:16:37;;;;;;;15.82;3.63;;;;;;;11.32;100.00;101183.69;1033638;28;20822;-81
2022/10/02 00:17:17;;;;;;;18.52;4.03;;;;;;;11.30;100.00;101176.94;1042907;28;20397;-81
2022/10/02 00:17:53;;;;;;;11.63;2.70;;;;;;;11.27;100.00;101185.34;1044247;28;20473;-81
2022/10/02 00:18:28;;;;;;;13.75;3.60;;;;;;;11.28;100.00;101184.31;1044221;28;20295;-81
2022/10/02 00:18:59;;;;;;;14.95;3.08;;;;;;;11.27;100.00;101186.19;1048109;28;20297;-80
2022/10/02 00:19:31;;;;;;;12.75;2.85;;;;;;;11.29;100.00;101183.28;1047805;28;20383;-81
2022/10/02 00:20:12;;;;;;;10.82;3.00;;;;;;;11.31;100.00;101187.38;1043939;28;20314;-80
2022/10/02 00:20:48;;;;;;;;;;;;;;;11.31;100.00;101187.38;1043726;28;20299;-81
2022/10/02 00:22:00;;;;;;;19.60;4.15;;;;;;;11.27;100.00;101183.50;1038421;28;20035;-80
2022/10/02 00:22:43;;;;;;;11.30;2.55;;;;;;;11.34;100.00;101180.81;1044829;28;21135;-80
2022/10/02 00:23:41;;;;;;;10.70;3.10;;;;;;;11.26;100.00;101179.22;1044199;28;20295;-81
2022/10/02 00:24:18;;;;;;;8.85;2.35;;;;;;;11.21;100.00;101191.50;1040163;28;20304;-80
2022/10/02 00:25:06;;;;;;;12.52;3.67;;;;;;;11.27;100.00;101186.19;1041097;28;20292;-81
2022/10/02 00:26:04;;;;;;;14.05;3.00;;;;;;;11.25;100.00;101182.09;1041981;28;20334;-80
2022/10/02 00:26:41;;;;;;;8.10;2.95;;;;;;;11.18;100.00;101187.44;1038340;28;20672;-80
2022/10/02 00:27:22;;;;;;;17.25;3.20;;;;;;;11.17;100.00;101184.97;1046441;28;20295;-80
2022/10/02 00:28:00;;;;;;;35.78;6.53;;;;;;;11.17;100.00;101185.78;1042305;28;20308;-81
2022/10/02 00:28:43;;;;;;;8.80;2.63;;;;;;;11.16;100.00;101186.81;1045164;28;20053;-81
2022/10/02 00:29:20;;;;;;;21.52;3.45;;;;;;;11.14;100.00;101179.03;1051897;28;20305;-80
2022/10/02 00:29:54;;;;;;;9.23;4.03;;;;;;;11.23;100.00;101189.44;1048539;28;20388;-81
2022/10/02 00:30:36;;;;;;;13.57;3.20;;;;;;;11.27;100.00;101186.19;1041045;28;20328;-80
2022/10/02 00:31:43;;;;;;;11.82;2.70;;;;;;;11.24;100.00;101186.59;1042382;28;20306;-80
2022/10/02 00:32:26;;;;;;;11.18;2.67;;;;;;;11.14;100.00;101188.88;1045121;28;20368;-81
2022/10/02 00:33:15;;;;;;;9.50;2.85;;;;;;;11.21;100.00;101192.34;1045386;28;20382;-81
2022/10/02 00:33:58;;;;;;;9.65;3.67;;;;;;;11.21;100.00;101189.66;1047937;28;20291;-81
2022/10/02 00:34:42;;;;;;;8.02;2.65;;;;;;;11.17;100.00;101188.47;1045282;28;20724;-80
2022/10/02 00:35:20;;;;;;;13.63;2.97;;;;;;;11.24;100.00;101191.13;1050389;28;20333;-81
2022/10/02 00:36:09;;;;;;;14.98;3.03;;;;;;;11.26;100.00;101187.22;1050706;28;20305;-80
2022/10/02 00:37:19;;;;;;;21.92;5.00;;;;;;;11.11;100.00;101187.47;1049389;28;20327;-80
2022/10/02 00:38:19;;;;;;;9.68;2.90;;;;;;;11.18;100.00;101194.59;1043201;28;20322;-80
2022/10/02 00:39:07;;;;;;;16.52;4.38;;;;;;;11.19;100.00;101194.41;1043652;28;20330;-80
2022/10/02 00:40:16;;;;;;;14.95;2.50;;;;;;;11.21;100.00;101196.84;1048556;28;20303;-81
2022/10/02 00:41:06;;;;;;;9.27;2.67;;;;;;;11.26;100.00;101200.53;1041674;28;20292;-80
2022/10/02 00:42:20;;;;;;;6.57;2.90;;;;;;;11.15;100.00;101203.84;1042333;28;20307;-80
2022/10/02 00:43:02;;;;;;;10.52;2.28;;;;;;;11.17;100.00;101200.97;1048972;28;20305;-80
2022/10/02 00:44:08;;;;;;;15.48;3.75;;;;;;;11.14;100.00;101202.22;1052361;28;20297;-80
2022/10/02 00:44:51;;;;;;;12.57;2.70;;;;;;;11.25;100.00;101200.75;1049785;28;20335;-80
2022/10/02 00:47:22;;;;;;;13.93;2.78;;;;;;;11.17;100.00;101200.97;1045629;28;20288;-80
2022/10/02 00:48:12;;;;;;;13.30;2.38;;;;;;;11.14;100.00;101196.88;1048536;28;20638;-80
2022/10/02 00:48:49;;;;;;;10.68;3.78;;;;;;;11.17;100.00;101199.13;1050572;28;20302;-80
2022/10/02 00:49:40;;;;;;;24.60;3.67;;;;;;;11.24;100.00;101197.28;1049847;28;20296;-80
2022/10/02 00:50:36;;;;;;;11.18;3.25;;;;;;;11.30;100.00;101201.75;1047667;28;20370;-81
2022/10/02 00:51:36;;;;;;;7.75;2.33;;;;;;;11.30;100.00;101198.28;1045865;28;20295;-80
2022/10/02 00:52:32;;;;;;;10.18;3.20;;;;;;;11.32;100.00;101197.03;1045708;28;20291;-80
2022/10/02 00:53:06;;;;;;;11.30;1.80;;;;;;;11.42;100.00;101194.69;1045660;28;20303;-80
2022/10/02 00:53:56;;;;;;;10.15;3.05;;;;;;;11.40;100.00;101199.44;1052054;28;20305;-80
2022/10/02 00:54:49;;;;;;;12.43;3.22;;;;;;;11.45;100.00;101199.59;1049404;28;20818;-80
2022/10/02 00:55:30;;;;;;;8.73;3.70;;;;;;;11.38;100.00;101201.50;1049026;28;21469;-81
2022/10/02 00:56:11;;;;;;;;;;;;;;;11.42;100.00;101200.03;1052184;28;20282;-80
2022/10/02 00:56:57;;;;;;;9.50;1.95;;;;;;;11.41;100.00;101203.75;1047994;28;19921;-80
2022/10/02 00:57:52;;;;;;;11.00;2.67;;;;;;;11.43;100.00;101207.00;1047314;28;20299;-80
2022/10/02 00:58:34;;;;;;;17.55;1.95;;;;;;;11.49;100.00;101200.00;1046005;28;20290;-80
2022/10/02 00:59:27;;;;;;;7.25;2.08;;;;;;;11.45;100.00;101199.59;1043717;28;20339;-80
2022/10/02 01:00:05;;;;;;;11.05;2.40;;;;;;;11.45;100.00;101204.94;1047933;28;20301;-80
2022/10/02 01:00:39;;;;;;;7.70;2.25;;;;;;;11.56;100.00;101194.66;1045478;28;20299;-80
2022/10/02 01:01:15;;;;;;;9.38;1.90;;;;;;;11.50;100.00;101203.47;1047086;28;20302;-79
2022/10/02 01:02:25;;;;;;;11.05;2.22;;;;;;;11.56;100.00;101210.66;1046100;28;20313;-80
2022/10/02 01:03:10;;;;;;;9.75;2.35;;;;;;;11.51;100.00;101210.47;1030633;28;20308;-80
2022/10/02 01:04:05;;;;;;;8.35;2.47;;;;;;;11.46;100.00;101219.09;1030644;28;20308;-80
2022/10/02 01:04:38;;;;;;;10.23;1.95;;;;;;;11.40;100.00;101218.09;1035555;28;20308;-80
2022/10/02 01:05:10;;;;;;;12.38;2.38;;;;;;;11.42;100.00;101216.03;1043537;28;20298;-80
2022/10/02 01:05:41;;;;;;;7.63;3.15;;;;;;;11.44;100.00;101224.66;1041456;28;20793;-80
2022/10/02 01:06:13;;;;;;;15.95;2.75;;;;;;;11.46;100.00;101225.25;1043523;28;20757;-81
2022/10/02 01:06:45;;;;;;;17.90;2.38;;;;;;;11.50;100.00;101230.16;1042834;28;20374;-80
2022/10/02 01:07:16;;;;;;;10.57;3.45;;;;;;;11.53;100.00;101235.09;1043678;28;20299;-80
2022/10/02 01:07:50;;;;;;;8.38;1.90;;;;;;;11.48;100.00;101241.03;1049947;28;20302;-80
2022/10/02 01:08:22;;;;;;;5.57;1.55;;;;;;;11.50;100.00;101244.31;1044071;28;20306;-80
2022/10/02 01:08:54;;;;;;;12.50;2.97;;;;;;;11.52;100.00;101246.81;1042198;28;20296;-80
2022/10/02 01:09:26;;;;;;;9.75;3.22;;;;;;;11.57;100.00;101250.47;1044857;28;20409;-80
2022/10/02 01:09:58;;;;;;;6.07;2.20;;;;;;;11.60;100.00;101255.38;1045408;28;20353;-80
2022/10/02 01:10:30;;;;;;;24.95;2.90;;;;;;;11.60;100.00;101255.38;1052088;28;20298;-79
2022/10/02 01:11:02;;;;;;;12.57;2.92;;;;;;;11.61;100.00;101258.84;1046940;28;20689;-80
2022/10/02 01:11:37;;;;;;;11.18;3.38;;;;;;;11.66;100.00;101259.84;1039562;28;20382;-80
2022/10/02 01:12:09;;;;;;;7.45;2.63;;;;;;;11.64;100.00;101255.75;1039223;28;20338;-81
2022/10/02 01:12:41;;;;;;;8.13;2.20;;;;;;;11.61;100.00;101264.19;1039118;28;20374;-80
2022/10/02 01:13:12;;;;;;;14.85;1.83;;;;;;;11.62;100.00;101263.16;1041470;28;20304;-80
2022/10/02 01:13:44;;;;;;;9.93;1.90;;;;;;;11.59;100.00;101263.59;1046787;28;20309;-80
2022/10/02 01:14:16;;;;;;;13.73;2.92;;;;;;;11.61;100.00;101265.00;1047343;28;20326;-82
2022/10/02 01:14:48;;;;;;;8.48;1.58;;;;;;;11.58;100.00;101261.94;1047255;28;20286;-83
2022/10/02 01:15:28;;;;;;;12.18;1.83;;;;;;;11.61;100.00;101269.53;1047061;28;20377;-83
2022/10/02 01:16:00;;;;;;;12.80;2.78;;;;;;;11.67;100.00;101261.47;1047510;28;20302;-88
2022/10/02 01:16:32;;;;;;;10.52;2.60;;;;;;;11.71;100.00;101269.88;1047013;28;20462;-86
2022/10/02 01:17:26;;;;;;;11.93;1.92;;;;;;;11.68;100.00;101272.97;1045735;28;20326;-85
2022/10/02 01:17:58;;;;;;;8.13;2.70;;;;;;;11.75;100.00;101274.56;1041284;28;20342;-86
2022/10/02 01:18:30;;;;;;;13.80;3.42;;;;;;;11.73;100.00;101265.16;1038422;28;20352;-85
2022/10/02 01:19:01;;;;;;;8.55;2.28;;;;;;;11.61;100.00;101266.88;1043249;28;20303;-85
2022/10/02 01:19:37;;;;;;;10.32;2.33;;;;;;;11.55;100.00;101260.53;1042015;28;20353;-84
2022/10/02 01:20:21;;;;;;;9.15;1.90;;;;;;;11.58;100.00;101259.28;1037216;28;20296;-83
2022/10/02 01:21:01;;;;;;;10.88;1.95;;;;;;;11.61;100.00;101258.84;1041766;28;20940;-83
2022/10/02 01:21:41;;;;;;;10.63;1.85;;;;;;;11.57;100.00;101258.47;1044857;28;20781;-83
2022/10/02 01:22:20;;;;;;;3.05;1.27;;;;;;;11.55;100.00;101267.72;1050998;28;20298;-83
2022/10/02 01:23:14;;;;;;;3.88;2.03;;;;;;;11.55;100.00;101265.06;1051428;28;20762;-83
2022/10/02 01:24:15;;;;;;;7.55;2.17;;;;;;;11.57;100.00;101262.97;1048653;28;20297;-81
2022/10/02 01:24:51;;;;;;;2.55;1.40;;;;;;;11.57;100.00;101262.97;1049477;28;20326;-82
2022/10/02 01:25:22;;;;;;;3.95;1.02;;;;;;;11.54;100.00;101258.91;1047140;28;20066;-81
2022/10/02 01:25:54;;;;;;;2.58;1.05;;;;;;;11.56;100.00;101264.03;1047711;28;20302;-82
2022/10/02 01:26:26;;;;;;;7.43;1.50;;;;;;;11.52;100.00;101262.81;1041571;28;20302;-81
2022/10/02 01:26:57;;;;;;;5.93;1.08;;;;;;;11.50;100.00;101256.84;1041549;28;20303;-82
2022/10/02 01:27:30;;;;;;;6.13;1.10;;;;;;;11.56;100.00;101259.50;1043982;28;20697;-81
2022/10/02 01:28:04;;;;;;;4.07;1.65;;;;;;;11.54;100.00;101266.09;1040621;28;20849;-80
2022/10/02 01:28:36;;;;;;;5.88;1.85;;;;;;;11.42;100.00;101258.72;1040654;28;20299;-80
2022/10/02 01:29:08;;;;;;;1.63;0.88;;;;;;;11.52;100.00;101258.28;1040229;28;20299;-81
2022/10/02 01:29:40;;;;;;;3.22;0.90;;;;;;;11.42;100.00;101244.56;1048193;28;21104;-81
2022/10/02 01:30:15;;;;;;;7.00;1.85;;;;;;;11.44;100.00;101243.31;1048126;28;20720;-81
2022/10/02 01:30:49;;;;;;;3.47;0.80;;;;;;;11.49;100.00;101236.53;1040916;28;20300;-80
2022/10/02 01:31:23;;;;;;;8.82;1.70;;;;;;;11.50;100.00;101243.50;1042798;28;20303;-80
2022/10/02 01:31:55;;;;;;;11.38;3.00;;;;;;;11.45;100.00;101242.28;1041368;28;20799;-81
2022/10/02 01:32:28;;;;;;;7.35;1.55;;;;;;;11.40;100.00;101239.44;1048167;28;20310;-80
2022/10/02 01:33:02;;;;;;;7.95;1.25;;;;;;;11.42;100.00;101236.56;1049240;28;20638;-80
2022/10/02 01:33:37;;;;;;;12.93;1.00;;;;;;;11.32;100.00;101241.53;1045811;28;20307;-80
2022/10/02 01:34:08;;;;;;;6.20;1.60;;;;;;;11.32;100.00;101247.69;1044759;28;20307;-80
2022/10/02 01:34:40;;;;;;;2.80;1.20;;;;;;;11.29;100.00;101237.44;1041394;28;20284;-81
2022/10/02 01:35:12;;;;;;;10.48;1.42;;;;;;;11.35;100.00;101236.59;1045293;28;20302;-80
2022/10/02 01:35:45;;;;;;;3.92;1.10;;;;;;;11.33;100.00;101227.19;1039690;28;20295;-80
2022/10/02 01:36:17;;;;;;;5.57;3.03;;;;;;;11.28;100.00;101227.00;1036208;28;20289;-80
2022/10/02 01:36:48;;;;;;;6.22;1.98;;;;;;;11.27;100.00;101228.84;1039642;28;20292;-80
2022/10/02 01:37:26;;;;;;;2.80;0.90;;;;;;;11.27;100.00;101223.50;1044513;28;20311;-80
2022/10/02 01:37:59;;;;;;;1.85;1.02;;;;;;;11.19;100.00;101221.06;1049117;28;20381;-79
2022/10/02 01:38:31;;;;;;;3.05;1.30;;;;;;;11.22;100.00;101223.31;1041477;28;20800;-80
2022/10/02 01:39:02;;;;;;;5.97;1.10;;;;;;;11.20;100.00;101228.03;1040131;28;20435;-80
2022/10/02 01:39:34;;;;;;;4.78;2.08;;;;;;;11.20;100.00;101230.69;1034227;28;20333;-80
2022/10/02 01:40:09;;;;;;;4.05;0.90;;;;;;;11.24;100.00;101228.44;1039969;28;20296;-80
2022/10/02 01:40:40;;;;;;;5.43;0.98;;;;;;;11.33;100.00;101230.66;1043132;28;20385;-79
2022/10/02 01:41:12;;;;;;;4.97;1.30;;;;;;;11.24;100.00;101223.13;1040850;28;20292;-79
2022/10/02 01:41:44;;;;;;;5.50;0.75;;;;;;;11.25;100.00;101219.41;1039814;28;20414;-79
2022/10/02 01:42:16;;;;;;;4.57;1.45;;;;;;;11.21;100.00;101218.19;1036534;28;21127;-79
2022/10/02 01:42:47;;;;;;;2.63;1.00;;;;;;;11.26;100.00;101221.88;1042551;28;20287;-79
2022/10/02 01:43:26;;;;;;;7.13;1.52;;;;;;;11.19;100.00;101218.41;1047471;28;20428;-79
2022/10/02 01:43:59;;;;;;;5.65;1.30;;;;;;;11.29;100.00;101225.97;1048047;28;20309;-79
2022/10/02 01:44:31;;;;;;;3.00;1.13;;;;;;;11.26;100.00;101221.06;1047338;28;20299;-79
2022/10/02 01:45:04;;;;;;;3.22;0.90;;;;;;;11.19;100.00;101220.25;1041385;28;20299;-79
2022/10/02 01:45:51;;;;;;;6.68;1.55;;;;;;;11.17;100.00;101217.78;1038306;28;20300;-79
2022/10/02 01:46:30;;;;;;;4.43;1.25;;;;;;;11.23;100.00;101221.44;1043408;28;20299;-79
2022/10/02 01:47:14;;;;;;;4.63;1.23;;;;;;;11.09;100.00;101226.03;1047698;28;20298;-79
2022/10/02 01:48:00;;;;;;;4.38;1.30;;;;;;;11.19;100.00;101228.25;1048129;28;20291;-79
2022/10/02 01:48:45;;;;;;;5.68;1.25;;;;;;;11.18;100.00;101216.75;1039634;28;20331;-79
2022/10/02 01:49:43;;;;;;;3.95;1.05;;;;;;;11.03;100.00;101222.34;1033517;28;20344;-79
2022/10/02 01:50:40;;;;;;;2.58;1.35;;;;;;;11.04;100.00;101228.50;1040698;28;20311;-79
2022/10/02 01:51:38;;;;;;;6.72;1.23;;;;;;;11.03;100.00;101222.34;1045476;28;20307;-79
2022/10/02 01:52:24;;;;;;;2.45;0.88;;;;;;;10.98;100.00;101224.84;1039719;28;20319;-80
2022/10/02 01:53:14;;;;;;;6.20;1.10;;;;;;;10.95;100.00;101227.91;1038365;28;20301;-80
2022/10/02 01:53:49;;;;;;;2.72;0.90;;;;;;;10.90;100.00;101226.88;1041887;28;20789;-80
2022/10/02 01:54:24;;;;;;;4.22;1.48;;;;;;;10.96;100.00;101228.75;1039523;28;20379;-80
2022/10/02 01:55:01;;;;;;;7.05;1.83;;;;;;;10.88;100.00;101228.94;1043423;28;20894;-80
2022/10/02 01:55:40;;;;;;;6.88;1.27;;;;;;;10.83;100.00;101227.72;1047876;28;20295;-80
2022/10/02 01:56:43;;;;;;;4.07;1.17;;;;;;;10.75;100.00;101233.28;1051253;28;20298;-80
2022/10/02 01:57:27;;;;;;;6.45;1.05;;;;;;;10.80;100.00;101232.66;1046500;28;20295;-80
2022/10/02 01:58:24;;;;;;;5.85;1.40;;;;;;;10.72;100.00;101230.22;1051215;28;20836;-80
2022/10/02 01:59:33;;;;;;;5.72;0.80;;;;;;;10.72;100.00;101231.03;1047922;28;20377;-80
2022/10/02 02:00:10;;;;;;;2.20;1.13;;;;;;;10.70;100.00;101233.09;1042106;28;20300;-80
2022/10/02 02:01:16;;;;;;;4.68;1.33;;;;;;;10.73;100.00;101235.34;1040045;28;20285;-80
2022/10/02 02:02:15;;;;;;;4.45;1.23;;;;;;;10.64;100.00;101231.25;1041080;28;20819;-80
2022/10/02 02:02:50;;;;;;;4.85;1.02;;;;;;;10.64;100.00;101231.25;1047179;28;20303;-80
2022/10/02 02:03:42;;;;;;;5.40;1.90;;;;;;;10.66;100.00;101234.50;1041409;28;20367;-80
2022/10/02 02:04:28;;;;;;;3.30;0.70;;;;;;;10.60;100.00;101237.19;1043709;28;20295;-79
2022/10/02 02:05:11;;;;;;;1.55;0.70;;;;;;;10.59;100.00;101233.72;1039575;28;20306;-80
2022/10/02 02:05:55;;;;;;;6.22;1.25;;;;;;;10.52;100.00;101235.56;1042701;28;20299;-80
2022/10/02 02:06:51;;;;;;;4.50;1.35;;;;;;;10.60;100.00;101232.69;1038562;28;20308;-80
2022/10/02 02:07:38;;;;;;;12.10;3.50;;;;;;;10.60;100.00;101235.34;1039833;28;20311;-80
2022/10/02 02:08:18;;;;;;;2.78;1.10;;;;;;;10.56;100.00;101234.13;1042777;28;20296;-80
2022/10/02 02:09:06;;;;;;;8.70;1.13;;;;;;;10.48;100.00;101229.00;1044802;28;20299;-80
2022/10/02 02:09:42;;;;;;;7.57;1.30;;;;;;;10.47;100.00;101222.06;1046901;28;20040;-80
2022/10/02 02:10:18;;;;;;;6.47;0.95;;;;;;;10.47;100.00;101227.38;1043426;28;20750;-80
2022/10/02 02:11:11;;;;;;;3.80;1.02;;;;;;;10.39;100.00;101227.56;1042291;28;20304;-80
2022/10/02 02:12:07;;;;;;;8.27;2.50;;;;;;;10.40;100.00;101226.53;1044113;28;20365;-80
2022/10/02 02:12:42;;;;;;;6.85;0.90;;;;;;;10.37;100.00;101218.97;1046223;28;20337;-80
2022/10/02 02:13:38;;;;;;;5.47;1.27;;;;;;;10.35;100.00;101229.81;1039285;28;20335;-80
2022/10/02 02:14:21;;;;;;;4.28;1.33;;;;;;;10.36;100.00;101231.47;1044168;28;20299;-80
2022/10/02 02:15:01;;;;;;;4.65;1.10;;;;;;;10.34;100.00;101222.03;1041019;28;20368;-80
2022/10/02 02:16:05;;;;;;;3.30;1.40;;;;;;;10.38;100.00;101228.59;1039576;28;20311;-80
2022/10/02 02:16:47;;;;;;;3.92;0.98;;;;;;;10.41;100.00;101230.88;1041557;28;20416;-80
2022/10/02 02:17:35;;;;;;;4.88;1.08;;;;;;;10.33;100.00;101237.19;1043118;28;20315;-80
2022/10/02 02:18:16;;;;;;;6.68;1.23;;;;;;;10.30;100.00;101237.59;1037004;28;20296;-80
2022/10/02 02:19:22;;;;;;;2.45;0.80;;;;;;;10.29;100.00;101235.97;1043952;28;20327;-80
2022/10/02 02:20:07;;;;;;;17.15;1.42;;;;;;;10.28;100.00;101238.84;1046412;28;20033;-80
2022/10/02 02:20:46;;;;;;;7.22;2.80;;;;;;;10.35;100.00;101235.16;1045212;28;20302;-80
2022/10/02 02:21:23;;;;;;;31.67;2.15;;;;;;;10.37;100.00;101240.25;1050141;28;20305;-80
2022/10/02 02:21:57;;;;;;;3.45;1.10;;;;;;;10.26;100.00;101240.88;1051080;28;20382;-80
2022/10/02 02:22:31;;;;;;;2.40;0.93;;;;;;;10.20;100.00;101238.03;1048072;28;20294;-80
2022/10/02 02:23:07;;;;;;;4.32;1.10;;;;;;;10.29;100.00;101235.16;1048080;28;20328;-80
2022/10/02 02:23:39;;;;;;;7.85;1.10;;;;;;;10.19;100.00;101236.34;1043528;28;20339;-80
2022/10/02 02:24:31;;;;;;;8.35;1.60;;;;;;;10.14;100.00;101240.66;1044857;28;20395;-80
2022/10/02 02:25:09;;;;;;;11.77;1.02;;;;;;;10.13;100.00;101242.47;1042494;28;20990;-79
2022/10/02 02:25:44;;;;;;;1.98;1.52;;;;;;;10.10;100.00;101248.19;1042476;28;20401;-79
2022/10/02 02:26:17;;;;;;;3.67;1.02;;;;;;;10.07;100.00;101245.94;1039393;28;20311;-79
2022/10/02 02:26:50;;;;;;;11.82;2.38;;;;;;;10.17;100.00;101237.59;1036805;28;20304;-79
2022/10/02 02:27:24;;;;;;;10.88;1.48;;;;;;;10.09;100.00;101241.25;1038603;28;20331;-80
2022/10/02 02:28:00;;;;;;;5.70;1.55;;;;;;;10.16;100.00;101243.94;1037402;28;20309;-79
2022/10/02 02:28:32;;;;;;;3.42;1.05;;;;;;;10.17;100.00;101251.72;1037419;28;20300;-80
2022/10/02 02:29:06;;;;;;;2.78;1.35;;;;;;;10.17;100.00;101248.22;1045618;28;20664;-80
2022/10/02 02:29:38;;;;;;;3.47;1.00;;;;;;;10.18;100.00;101239.22;1044994;28;20303;-80
2022/10/02 02:30:12;;;;;;;2.70;1.10;;;;;;;10.15;100.00;101240.44;1048823;28;20360;-80
2022/10/02 02:30:45;;;;;;;5.95;3.65;;;;;;;10.23;100.00;101241.31;1045205;28;20302;-79
2022/10/02 02:31:20;;;;;;;4.53;1.88;;;;;;;10.28;100.00;101249.50;1040866;28;20817;-80
2022/10/02 02:31:54;;;;;;;7.05;1.45;;;;;;;10.21;100.00;101246.84;1043964;28;20681;-79
2022/10/02 02:32:29;;;;;;;2.42;1.42;;;;;;;10.23;100.00;101242.13;1039398;28;20300;-79
2022/10/02 02:33:05;;;;;;;5.65;1.55;;;;;;;10.31;100.00;101249.91;1044771;28;20318;-80
2022/10/02 02:33:41;;;;;;;7.63;2.28;;;;;;;10.26;100.00;101246.22;1043716;28;20689;-80
2022/10/02 02:34:17;;;;;;;6.50;1.20;;;;;;;10.30;100.00;101242.13;1038804;28;20326;-80
2022/10/02 02:34:53;;;;;;;9.70;1.92;;;;;;;10.40;100.00;101246.00;1040398;28;20392;-80
2022/10/02 02:35:30;;;;;;;6.15;1.15;;;;;;;10.43;100.00;101239.47;1037897;28;20308;-80
2022/10/02 02:36:06;;;;;;;7.85;3.03;;;;;;;10.39;100.00;101246.19;1037692;28;20376;-80
2022/10/02 02:36:40;;;;;;;8.98;1.45;;;;;;;10.36;100.00;101241.28;1037936;28;20303;-80
2022/10/02 02:37:15;;;;;;;7.75;2.25;;;;;;;10.37;100.00;101245.59;1036801;28;20372;-80
2022/10/02 02:37:48;;;;;;;7.70;1.40;;;;;;;10.34;100.00;101243.34;1036924;28;20320;-80
2022/10/02 02:38:36;;;;;;;2.85;1.35;;;;;;;10.52;100.00;101235.56;1036399;28;20809;-80
2022/10/02 02:39:15;;;;;;;4.95;1.95;;;;;;;10.45;100.00;101229.44;1038398;28;20841;-80
2022/10/02 02:39:51;;;;;;;4.53;1.52;;;;;;;10.39;100.00;101247.03;1039116;28;21019;-79
2022/10/02 02:40:27;;;;;;;6.07;1.90;;;;;;;10.38;100.00;101247.22;1043897;28;20572;-79
2022/10/02 02:41:03;;;;;;;4.95;1.77;;;;;;;10.37;100.00;101242.94;1046673;28;20637;-79
2022/10/02 02:41:43;;;;;;;3.15;2.28;;;;;;;10.32;100.00;101245.38;1042233;28;20287;-79
2022/10/02 02:42:16;;;;;;;3.00;1.92;;;;;;;10.40;100.00;101238.00;1038265;28;20407;-79
2022/10/02 02:43:18;;;;;;;12.27;2.25;;;;;;;10.38;100.00;101229.41;1038045;28;20091;-79
2022/10/02 02:44:13;;;;;;;3.90;1.83;;;;;;;10.45;100.00;101240.09;1036587;28;20320;-79
2022/10/02 02:44:49;;;;;;;5.80;1.92;;;;;;;10.35;100.00;101235.16;1043632;28;20673;-79
2022/10/02 02:45:34;;;;;;;6.60;2.15;;;;;;;10.38;100.00;101231.25;1045918;28;20334;-80
2022/10/02 02:46:10;;;;;;;7.13;2.33;;;;;;;10.34;100.00;101227.38;1047867;28;20370;-79
2022/10/02 02:47:13;;;;;;;6.63;2.70;;;;;;;10.41;100.00;101233.53;1043476;28;20694;-79
2022/10/02 02:47:48;;;;;;;6.93;3.10;;;;;;;10.33;100.00;101231.06;1045270;28;20372;-79
2022/10/02 02:48:24;;;;;;;9.75;3.35;;;;;;;10.39;100.00;101232.88;1044673;28;20303;-79
2022/10/02 02:49:07;;;;;;;8.85;3.55;;;;;;;10.40;100.00;101232.69;1043896;28;20306;-79
2022/10/02 02:50:10;;;;;;;11.05;4.40;;;;;;;10.39;100.00;101230.22;1043093;28;20306;-79
2022/10/02 02:50:46;;;;;;;8.68;4.22;;;;;;;10.42;100.00;101230.66;1031722;28;20355;-80
2022/10/02 02:51:22;;;;;;;15.18;6.65;;;;;;;10.47;100.00;101227.38;1034070;28;20356;-79
2022/10/02 02:51:55;;;;;;;6.43;3.72;;;;;;;10.39;100.00;101225.72;1038991;28;20291;-79
2022/10/02 02:52:34;;;;;;;7.80;4.20;;;;;;;10.43;100.00;101220.81;1038433;28;20312;-79
2022/10/02 02:53:10;;;;;;;7.70;4.60;;;;;;;10.44;100.00;101227.78;1045805;28;20374;-79
2022/10/02 02:53:51;;;;;;;7.75;5.07;;;;;;;10.46;100.00;101223.91;1046225;28;20310;-79
2022/10/02 02:54:46;;;;;;;13.25;4.85;;;;;;;10.46;100.00;101220.41;1045747;28;20389;-79
2022/10/02 02:55:21;;;;;;;9.15;4.88;;;;;;;10.48;100.00;101226.34;1043091;28;20044;-79
2022/10/02 02:55:57;;;;;;;9.80;5.65;;;;;;;10.48;100.00;101223.69;1047054;28;20302;-80
2022/10/02 02:56:30;;;;;;;14.27;6.15;;;;;;;10.44;100.00;101225.13;1039511;28;20308;-79
2022/10/02 02:57:04;;;;;;;15.55;6.18;;;;;;;10.50;100.00;101221.63;1038138;28;20304;-80
2022/10/02 02:57:55;;;;;;;12.85;5.63;;;;;;;10.50;100.00;101221.63;1037298;28;20301;-79
2022/10/02 02:58:30;;;;;;;16.67;6.13;;;;;;;10.51;100.00;101223.28;1040917;28;20292;-79
2022/10/02 02:59:10;;;;;;;10.65;6.05;;;;;;;10.56;100.00;101226.13;1043470;28;20037;-79
2022/10/02 02:59:44;;;;;;;10.55;5.50;;;;;;;10.52;100.00;101230.25;1040460;28;20300;-79
2022/10/02 03:00:18;;;;;;;19.27;7.15;;;;;;;10.56;100.00;101226.13;1039115;28;20297;-79
2022/10/02 03:00:50;;;;;;;15.98;7.07;;;;;;;10.51;100.00;101233.94;1036721;28;20952;-80
2022/10/02 03:01:21;;;;;;;20.85;6.07;;;;;;;10.55;100.00;101224.50;1034884;28;20304;-80
2022/10/02 03:01:53;;;;;;;10.80;6.05;;;;;;;10.53;100.00;101231.88;1036358;28;20382;-80
2022/10/02 03:02:26;;;;;;;11.25;7.32;;;;;;;10.52;100.00;101230.25;1039211;28;20782;-79
2022/10/02 03:02:58;;;;;;;16.45;7.68;;;;;;;10.51;100.00;101233.94;1038001;28;20292;-79
2022/10/02 03:03:29;;;;;;;12.43;6.63;;;;;;;10.54;100.00;101225.53;1036085;28;20371;-79
2022/10/02 03:04:01;;;;;;;16.70;7.45;;;;;;;10.57;100.00;101233.09;1040085;28;20391;-80
2022/10/02 03:04:32;;;;;;;21.00;6.28;;;;;;;10.52;100.00;101230.25;1040064;28;20300;-79
2022/10/02 03:05:16;;;;;;;15.57;6.97;;;;;;;10.53;100.00;101235.34;1040056;28;20354;-79
2022/10/02 03:05:49;;;;;;;13.05;6.32;;;;;;;10.52;100.00;101235.56;1041123;28;20375;-79
2022/10/02 03:06:36;;;;;;;13.68;5.43;;;;;;;10.48;100.00;101229.84;1035853;28;20301;-79
2022/10/02 03:07:13;;;;;;;12.00;5.70;;;;;;;10.46;100.00;101226.56;1035885;28;20308;-79
2022/10/02 03:07:56;;;;;;;11.27;6.80;;;;;;;10.56;100.00;101231.47;1039672;28;20350;-79